• Join FlightAware (Why Join?)
  • Login
  • US Flag GB Flag 
00:17 EDT


 

Airport Tracker/Info


-or-


 

Live Flight TrackerFlight Track Log ✈ UAL1519 ✈ 25-May-2013 ✈ KEWR - TIST / STT

Flight Track Log - Related Links

Times and Time Zones

All times are in EDT time to prevent confusion due to time zone crossing. See the UAL1519 flight status page for this flight to view local times or setup timezone preferences in your user account.

Time Position Orientation Groundspeed Altitude Reporting Facility
EDT Latitude Longitude Course Direction KTS MPH feet Rate Location/Type
09:46 40.7167 -74.1500 217° Southwest 168 193 1,700  Level New York TRACON
09:47 40.7500 -74.1167 37° Northeast 211 243 4,300 2,760 Climbing New York TRACON
09:48 40.3370 -74.1668 161° South  Level FlightAware Approximate
09:48 40.7500 -74.2000 270° West 279 321 7,300  Level New York TRACON
09:49 40.2138 -74.1787 194° South  Level FlightAware Approximate
09:49 40.6667 -74.2333 197° South 307 353 10,600  Level New York TRACON
09:50 40.1006 -74.2167 180° South  Level FlightAware Approximate
09:50 40.5500 -74.2667 192° South 351 404 13,200  Level New York TRACON
09:51 39.9851 -74.2649 217° Southwest  Level FlightAware Approximate
09:52 40.3350 -74.2617 179° South 390 449 18,300  Level New York Center
09:54 40.0636 -74.1792 167° South 414 476 23,700 1,620 Climbing Washington Center
09:55 39.9706 -74.2569 213° Southwest 378 435 24,000 600 Climbing Washington Center
09:56 39.8864 -74.3558 222° Southwest 379 436 24,900 1,260 Climbing Washington Center
09:57 39.7978 -74.4544 221° Southwest 403 464 26,600 1,620 Climbing Washington Center
09:58 39.7153 -74.5664 226° Southwest 423 487 28,200 1,560 Climbing Washington Center
09:59 39.6289 -74.6836 226° Southwest 436 502 29,700 840 Climbing Washington Center
10:00 39.5422 -74.7950 225° Southwest 442 509 29,900 840 Climbing Washington Center
10:01 39.4553 -74.9089 225° Southwest 442 509 31,400 960 Climbing Washington Center
10:02 39.3706 -75.0225 226° Southwest 442 509 31,900 300 Climbing Washington Center
10:03 39.2750 -75.1278 220° Southwest 437 503 32,100 540 Climbing Washington Center
10:04 39.1919 -75.2194 221° Southwest 444 511 33,000 1,080 Climbing Washington Center
10:05 39.0964 -75.3294 222° Southwest 452 520 34,300 1,320 Climbing Washington Center
10:06 39.0028 -75.4367 222° Southwest 457 526 35,700 1,320 Climbing Washington Center
10:07 38.8819 -75.4769 195° South 448 516 37,100 960 Climbing Washington Center
10:08 38.7506 -75.4800 181° South 444 511 37,700 420 Climbing Washington Center
10:09 38.6214 -75.4933 185° South 464 534 38,000 120 Climbing Washington Center
10:10 38.4733 -75.5069 184° South 481 554 38,000 -60 Level Washington Center
10:11 38.3483 -75.5442 193° South 481 554 37,900  Descending Washington Center
10:12 38.2211 -75.5839 194° South 481 554 38,000  Climbing Washington Center
10:13 38.0917 -75.6233 193° South 476 548 38,000  Level Washington Center
10:14 37.9686 -75.6681 196° South 471 542 38,000  Level Washington Center
10:15 37.8394 -75.7100 194° South 471 542 38,000  Level Washington Center
10:16 37.7100 -75.7467 193° South 471 542 38,000 -300 Level Washington Center
10:17 37.5767 -75.7622 185° South 477 549 37,500 -600 Descending Washington Center
10:18 37.4453 -75.6808 154° Southeast 477 549 36,900 -300 Descending Washington Center
10:19 37.3181 -75.5944 152° Southeast 496 571 37,000  Climbing Washington Center
10:20 37.1867 -75.5111 153° Southeast 509 586 37,000 -60 Level Washington Center
10:21 37.0572 -75.4278 153° Southeast 514 592 36,900  Descending Washington Center
10:22 36.9275 -75.3425 152° Southeast 519 597 37,000  Climbing Washington Center
10:23 36.7981 -75.2600 153° Southeast 519 597 37,000  Level Washington Center
10:24 36.6642 -75.1750 153° Southeast 524 603 37,000  Level Washington Center
10:27 36.3672 -74.9833 153° Southeast 533 613 37,000  Level New York Center
10:28 36.2325 -74.9014 154° Southeast 528 608 37,000  Level New York Center
10:29 36.1019 -74.8144 152° Southeast 528 608 37,000  Level New York Center
10:30 35.9711 -74.7383 155° Southeast 523 602 37,000  Level New York Center
10:31 35.8383 -74.6547 153° Southeast 523 602 37,000  Level New York Center
10:32 35.7097 -74.5714 152° Southeast 523 602 37,000 -60 Level New York Center
10:33 35.5789 -74.4886 153° Southeast 523 602 36,900 -60 Descending New York Center
10:34 35.4478 -74.4083 153° Southeast 523 602 36,900  Level New York Center
10:35 35.3044 -74.3178 153° Southeast 523 602 37,000  Climbing New York Center
10:36 35.1878 -74.2464 153° Southeast 523 602 37,000 -60 Level New York Center
10:37 35.0608 -74.1672 153° Southeast 523 602 36,900  Descending New York Center
10:38 34.9317 -74.0881 153° Southeast 523 602 37,000  Climbing New York Center
10:39 34.8044 -74.0119 154° Southeast 516 594 37,000  Level New York Center
10:40 34.6772 -73.9361 154° Southeast 516 594 37,000  Level New York Center
10:41 34.5519 -73.8606 154° Southeast 511 588 37,000 -60 Level New York Center
10:42 34.4247 -73.7850 154° Southeast 505 581 36,900 -60 Descending New York Center
10:43 34.2969 -73.7300 160° South 500 575 36,900  Level New York Center
10:44 34.1708 -73.6803 162° South 488 562 37,000  Climbing New York Center
10:45 34.0406 -73.6378 165° South 483 556 37,000 -60 Level New York Center
10:46 33.9103 -73.5958 165° South 483 556 36,900 -60 Descending New York Center
10:47 33.7733 -73.5683 171° South 500 575 36,900  Level New York Center
10:48 33.6372 -73.4989 157° South 500 575 37,000  Climbing New York Center
10:49 33.5147 -73.4825 174° South 480 552 37,000  Level New York Center
10:50 33.3800 -73.4406 165° South 490 564 37,000  Level New York Center
10:52 33.1781 -73.3664 166° South  Level FlightAware Approximate
10:59 32.3280 -73.1084 166° South  Level FlightAware Approximate
11:00 32.2067 -73.0711 165° South  Level FlightAware Approximate
11:01 32.0855 -73.0335 165° South  Level FlightAware Approximate
11:02 31.9642 -72.9961 165° South  Level FlightAware Approximate
11:03 31.8430 -72.9587 165° South  Level FlightAware Approximate
11:04 31.7217 -72.9215 165° South  Level FlightAware Approximate
11:05 31.6004 -72.8843 165° South  Level FlightAware Approximate
11:06 31.4791 -72.8473 165° South  Level FlightAware Approximate
11:07 31.3578 -72.8103 165° South  Level FlightAware Approximate
11:08 31.2365 -72.7734 165° South  Level FlightAware Approximate
11:09 31.1152 -72.7367 165° South  Level FlightAware Approximate
11:10 30.9938 -72.7000 165° South  Level FlightAware Approximate
11:11 30.8725 -72.6634 165° South  Level FlightAware Approximate
11:12 30.7511 -72.6269 166° South  Level FlightAware Approximate
11:13 30.6297 -72.5905 166° South  Level FlightAware Approximate
11:14 30.5087 -72.5528 164° South  Level FlightAware Approximate
11:15 30.3883 -72.5126 164° South  Level FlightAware Approximate
11:16 30.2678 -72.4725 164° South  Level FlightAware Approximate
11:17 30.1473 -72.4326 168° South  Level FlightAware Approximate
11:17 30.1667 -72.4500 166° South 465 535 37,000  Level New York Oceanic (ODAPS)
11:18 30.0248 -72.4020 168° South  Level FlightAware Approximate
11:19 29.9023 -72.3714 168° South  Level FlightAware Approximate
11:20 29.7808 -72.3359 165° South  Level FlightAware Approximate
11:21 29.6595 -72.2996 165° South  Level FlightAware Approximate
11:22 29.5382 -72.2634 165° South  Level FlightAware Approximate
11:23 29.1597 -72.1594 166° South 465 535 37,000  Level FlightAware Transoceanic
11:24 29.0338 -72.1235 166° South 465 535 37,000  Level FlightAware Transoceanic
11:25 28.9079 -72.0876 166° South 465 535 37,000  Level FlightAware Transoceanic
11:26 28.7820 -72.0519 166° South 465 535 37,000  Level FlightAware Transoceanic
11:27 28.6560 -72.0162 166° South 465 535 37,000  Level FlightAware Transoceanic
11:28 28.5301 -71.9806 166° South 465 535 37,000  Level FlightAware Transoceanic
11:29 28.4041 -71.9451 166° South 465 535 37,000  Level FlightAware Transoceanic
11:30 28.2782 -71.9097 166° South 465 535 37,000  Level FlightAware Transoceanic
11:31 28.1522 -71.8744 166° South 465 535 37,000  Level FlightAware Transoceanic
11:32 28.0262 -71.8391 166° South 465 535 37,000  Level FlightAware Transoceanic
11:33 27.9002 -71.8040 166° South 465 535 37,000  Level FlightAware Transoceanic
11:34 27.7742 -71.7689 166° South 465 535 37,000  Level FlightAware Transoceanic
11:35 27.6482 -71.7339 166° South 465 535 37,000  Level FlightAware Transoceanic
11:36 27.5222 -71.6990 166° South 465 535 37,000  Level FlightAware Transoceanic
11:37 27.3961 -71.6642 166° South 465 535 37,000  Level FlightAware Transoceanic
11:38 27.2701 -71.6294 166° South 465 535 37,000  Level FlightAware Transoceanic
11:39 27.1441 -71.5947 166° South 465 535 37,000  Level FlightAware Transoceanic
11:40 27.0180 -71.5601 166° South 465 535 37,000  Level FlightAware Transoceanic
11:41 26.8919 -71.5256 166° South 465 535 37,000  Level FlightAware Transoceanic
11:42 26.7659 -71.4911 166° South 465 535 37,000  Level FlightAware Transoceanic
11:43 26.6398 -71.4568 166° South 465 535 37,000  Level FlightAware Transoceanic
11:44 26.5137 -71.4225 166° South 465 535 37,000  Level FlightAware Transoceanic
11:45 26.3876 -71.3883 166° South 465 535 37,000  Level FlightAware Transoceanic
11:46 26.2615 -71.3541 166° South 465 535 37,000  Level FlightAware Transoceanic
11:47 26.1354 -71.3201 166° South 465 535 37,000  Level FlightAware Transoceanic
11:48 26.0093 -71.2861 166° South 465 535 37,000  Level FlightAware Transoceanic
11:49 25.8831 -71.2521 166° South 465 535 37,000  Level FlightAware Transoceanic
11:50 25.7570 -71.2183 166° South 465 535 37,000  Level FlightAware Transoceanic
11:51 25.6308 -71.1845 166° South 465 535 37,000  Level FlightAware Transoceanic
11:52 25.5047 -71.1508 166° South 465 535 37,000  Level FlightAware Transoceanic
11:52 25.4856 -71.1397 147° Southeast 449 517 37,000  Level Miami Center
11:53 25.3785 -71.1172 166° South 465 535 37,000  Level FlightAware Transoceanic
11:53 25.3592 -71.1067 167° South 462 532 37,000  Level Miami Center
11:54 25.2524 -71.0836 166° South 465 535 37,000  Level FlightAware Transoceanic
11:54 25.2344 -71.0689 165° South 462 532 37,000  Level Miami Center
11:55 25.1262 -71.0501 166° South 465 535 37,000  Level FlightAware Transoceanic
11:55 25.1081 -71.0406 169° South 462 532 37,000  Level Miami Center
11:56 25.0000 -71.0167 147° Southeast 465 535 37,000  Level FlightAware Transoceanic
11:56 24.9856 -71.0031 164° South 468 539 37,000  Level Miami Center
11:57 24.8897 -70.9370 147° Southeast 465 535 37,000  Level FlightAware Transoceanic
11:57 24.8717 -70.9192 146° Southeast 463 533 37,000  Level Miami Center
11:58 24.7795 -70.8576 147° Southeast 465 535 37,000  Level FlightAware Transoceanic
11:58 24.7600 -70.8422 148° Southeast 463 533 37,000  Level Miami Center
11:59 24.6500 -70.7608 146° Southeast 475 547 37,000  Level Miami Center
12:00 24.5392 -70.7003 154° Southeast 445 512 37,000  Level Miami Center
12:01 24.4264 -70.6031 142° Southeast 485 558 37,000  Level Miami Center
12:02 24.3144 -70.5200 146° Southeast 485 558 37,000  Level Miami Center
12:03 24.2025 -70.4439 148° Southeast 485 558 37,000  Level Miami Center
12:04 24.0881 -70.3542 144° Southeast 485 558 37,000  Level Miami Center
12:05 23.9764 -70.2783 148° Southeast 485 558 37,000  Level Miami Center
12:06 23.8642 -70.1978 147° Southeast 490 564 37,000  Level Miami Center
12:07 23.7542 -70.1200 147° Southeast 490 564 37,000  Level Miami Center
12:08 23.6397 -70.0353 146° Southeast 485 558 37,000  Level Miami Center
12:09 23.5281 -69.9622 149° Southeast 485 558 37,000  Level Miami Center
12:10 23.4158 -69.8847 148° Southeast 485 558 37,000  Level Miami Center
12:11 23.3058 -69.8072 147° Southeast 482 555 37,000  Level Miami Center
12:12 23.1936 -69.7275 147° Southeast 487 560 37,000  Level Miami Center
12:13 23.0794 -69.6483 147° Southeast 482 555 37,000  Level Miami Center
12:14 22.9672 -69.5711 148° Southeast 482 555 37,000  Level Miami Center
12:15 22.8572 -69.4964 148° Southeast 482 555 37,000  Level Miami Center
12:16 22.7450 -69.4172 147° Southeast 482 555 37,000  Level Miami Center
12:17 22.6458 -69.3511 148° Southeast 482 555 37,000  Level Miami Center
12:18 22.5289 -69.2681 147° Southeast 482 555 37,000  Level Miami Center
12:19 22.4167 -69.1917 148° Southeast 487 560 37,000  Level Miami Center
12:20 22.3200 -69.0942 137° Southeast 487 560 37,000  Level Miami Center
12:21 22.2875 -68.9483 104° East 449 517 37,000  Level Miami Center
12:22 22.2569 -68.8025 103° East 471 542 37,000  Level Miami Center
12:23 22.1703 -68.7006 133° Southeast 463 533 37,000  Level Miami Center
12:24 22.0514 -68.6228 149° Southeast 468 539 37,000  Level Miami Center
12:25 21.9392 -68.5494 149° Southeast 475 547 37,000  Level Miami Center
12:26 21.8222 -68.4697 148° Southeast 480 552 37,000  Level Miami Center
12:27 21.7078 -68.3944 149° Southeast 486 559 37,000  Level Miami Center
12:28 21.5953 -68.3194 148° Southeast 486 559 37,000  Level Miami Center
12:29 21.4786 -68.2444 149° Southeast 481 554 37,000  Level Miami Center
12:30 21.3681 -68.1692 148° Southeast 486 559 37,000  Level Miami Center
12:31 21.2619 -68.0939 147° Southeast 480 552 37,000  Level Miami Center
12:32 21.1475 -68.0217 150° Southeast 480 552 37,000  Level Miami Center
12:33 21.0392 -67.9511 149° Southeast 474 545 37,000  Level Miami Center
12:34 20.9328 -67.8717 145° Southeast 474 545 37,000  Level Miami Center
12:35 20.8475 -67.7664 131° Southeast 457 526 37,000  Level Miami Center
12:36 20.7642 -67.6592 130° Southeast 463 533 37,000  Level Miami Center
12:37 20.6833 -67.5333 124° Southeast 470 541 37,000  Level San Juan Center
12:38 20.6000 -67.4167 127° Southeast 480 552 37,000  Level San Juan Center
12:39 20.5167 -67.3167 132° Southeast 470 541 37,000  Level San Juan Center
12:40 20.4167 -67.2167 137° Southeast 470 541 37,000  Level San Juan Center
12:41 20.3333 -67.1167 132° Southeast 470 541 37,000  Level San Juan Center
12:42 20.2333 -67.0167 137° Southeast 470 541 37,000  Level San Juan Center
12:43 20.1500 -66.9167 132° Southeast 470 541 37,000 -300 Level San Juan Center
12:44 20.0500 -66.8167 137° Southeast 470 541 36,500 -720 Descending San Juan Center
12:45 19.9500 -66.7167 137° Southeast 470 541 35,600 -960 Descending San Juan Center
12:46 19.8667 -66.6167 132° Southeast 470 541 34,600 -960 Descending San Juan Center
12:47 19.7667 -66.5167 137° Southeast 470 541 33,700 -960 Descending San Juan Center
12:48 19.6833 -66.4167 132° Southeast 470 541 32,700 -1,080 Descending San Juan Center
12:49 19.5833 -66.3167 137° Southeast 460 529 31,600 -2,100 Descending San Juan Center
12:50 19.5000 -66.2333 137° Southeast 460 529 28,500 -2,700 Descending San Juan Center
12:51 19.4000 -66.1500 142° Southeast 450 518 26,200 -1,680 Descending San Juan Center
12:52 19.2833 -66.0833 152° Southeast 440 506 25,200 -960 Descending San Juan Center
12:53 19.2000 -66.0333 150° Southeast 440 506 24,300 -1,320 Descending San Juan Center
12:54 19.0667 -65.9833 160° South 440 506 22,600 -2,280 Descending San Juan Center
12:55 18.9500 -65.9500 165° South 430 495 19,800 -2,640 Descending San Juan Center
12:56 18.8667 -65.8833 143° Southeast 420 483 17,300 -2,400 Descending San Juan Center
12:57 18.7833 -65.7833 131° Southeast 400 460 15,000 -2,220 Descending San Juan Center
12:58 18.7167 -65.7000 130° Southeast 370 426 12,900 -2,040 Descending San Juan Center
12:59 18.6667 -65.6167 122° Southeast 340 391 11,000 -1,380 Descending San Juan Center
13:00 18.6000 -65.5500 137° Southeast 320 368 10,200 -960 Descending San Juan Center
13:01 18.5500 -65.4833 128° Southeast 290 334 9,100 -1,200 Descending San Juan Center
13:02 18.5000 -65.4167 128° Southeast 270 311 7,800 -1,440 Descending San Juan Center
13:03 18.4500 -65.3500 128° Southeast 270 311 6,200 -1,500 Descending San Juan Center
13:04 18.4000 -65.2833 128° Southeast 270 311 4,800 -1,320 Descending San Juan Center
13:05 18.3667 -65.2333 125° Southeast 250 288 3,600 -1,020 Descending San Juan Center
13:06 18.3167 -65.1667 128° Southeast 250 288 2,800 -840 Descending San Juan Center